createdAt,value
2018-07-22T00:00:46.890Z,23.13
2018-07-22T00:03:16.230Z,25.07
2018-07-22T00:05:45.591Z,22.97
2018-07-22T00:08:14.934Z,23.73
2018-07-22T00:10:44.282Z,22.43
2018-07-22T00:13:13.651Z,25.73
2018-07-22T00:15:43.051Z,21.73
2018-07-22T00:18:12.394Z,22.23
2018-07-22T00:20:41.868Z,22.60
2018-07-22T00:23:11.270Z,22.17
2018-07-22T00:25:40.968Z,20.90
2018-07-22T00:28:10.274Z,27.10
2018-07-22T00:30:39.746Z,28.23
2018-07-22T00:33:09.088Z,24.37
2018-07-22T00:35:38.442Z,26.53
2018-07-22T00:38:07.512Z,24.73
2018-07-22T00:40:36.765Z,26.80
2018-07-22T00:43:06.139Z,26.43
2018-07-22T00:45:35.465Z,25.03
2018-07-22T00:48:04.934Z,22.87
2018-07-22T00:50:34.329Z,24.30
2018-07-22T00:53:03.703Z,26.27
2018-07-22T00:55:33.025Z,28.00
2018-07-22T00:58:02.389Z,36.90
2018-07-22T01:00:31.824Z,28.43
2018-07-22T01:03:01.182Z,27.50
2018-07-22T01:05:30.524Z,28.43
2018-07-22T01:07:59.871Z,30.17
2018-07-22T01:10:29.243Z,33.50
2018-07-22T01:12:58.630Z,32.80
2018-07-22T01:15:27.963Z,33.07
2018-07-22T01:17:57.440Z,35.07
2018-07-22T01:20:26.839Z,35.93
2018-07-22T01:22:56.292Z,40.80
2018-07-22T01:25:25.604Z,44.57
2018-07-22T01:27:54.964Z,34.40
2018-07-22T01:30:24.291Z,37.20
2018-07-22T01:32:53.622Z,36.70
2018-07-22T01:35:23.050Z,35.63
2018-07-22T01:37:52.382Z,36.10
2018-07-22T01:40:21.763Z,36.73
2018-07-22T01:42:51.115Z,38.00
2018-07-22T01:45:20.467Z,35.37
2018-07-22T01:47:49.791Z,43.53
2018-07-22T01:50:19.195Z,33.53
2018-07-22T01:52:48.516Z,39.40
2018-07-22T01:55:17.891Z,34.27
2018-07-22T01:57:47.228Z,38.77
2018-07-22T02:00:16.631Z,36.47
2018-07-22T02:02:45.955Z,34.23
2018-07-22T02:05:15.336Z,36.07
2018-07-22T02:07:44.718Z,38.43
2018-07-22T02:10:14.037Z,34.23
2018-07-22T02:12:43.409Z,35.37
2018-07-22T02:15:12.689Z,39.87
2018-07-22T02:17:41.985Z,43.73
2018-07-22T02:20:11.310Z,30.93
2018-07-22T02:22:40.712Z,30.87
2018-07-22T02:25:10.052Z,31.50
2018-07-22T02:27:39.754Z,31.50
2018-07-22T02:30:09.661Z,31.73
2018-07-22T02:32:38.857Z,29.00
2018-07-22T02:35:08.045Z,28.33
2018-07-22T02:37:37.337Z,30.07
2018-07-22T02:40:06.669Z,29.70
2018-07-22T02:42:36.004Z,29.90
2018-07-22T02:45:05.343Z,28.40
2018-07-22T02:47:34.622Z,29.07
2018-07-22T02:50:04.199Z,31.20
2018-07-22T02:52:33.527Z,28.17
2018-07-22T02:55:02.822Z,30.97
2018-07-22T02:57:32.132Z,29.70
2018-07-22T03:00:01.488Z,36.73
2018-07-22T03:02:30.791Z,28.33
2018-07-22T03:05:00.119Z,32.47
2018-07-22T03:07:29.430Z,31.03
2018-07-22T03:09:58.766Z,30.47
2018-07-22T03:12:28.085Z,32.40
2018-07-22T03:14:57.470Z,28.20
2018-07-22T03:17:26.770Z,26.77
2018-07-22T03:19:56.169Z,29.03
2018-07-22T03:22:25.548Z,29.67
2018-07-22T03:24:54.897Z,28.83
2018-07-22T03:27:24.319Z,29.23
2018-07-22T03:29:53.710Z,26.93
2018-07-22T03:32:23.976Z,30.37
2018-07-22T03:34:53.348Z,28.70
2018-07-22T03:37:22.691Z,30.23
2018-07-22T03:39:52.016Z,28.87
2018-07-22T03:42:21.385Z,27.53
2018-07-22T03:44:50.681Z,25.57
2018-07-22T03:47:20.113Z,22.43
2018-07-22T03:49:49.434Z,26.50
2018-07-22T03:52:18.766Z,23.90
2018-07-22T03:54:48.120Z,26.50
2018-07-22T03:57:17.616Z,20.63
2018-07-22T03:59:47.049Z,20.03
2018-07-22T04:02:16.490Z,18.13
2018-07-22T04:04:45.869Z,12.90
2018-07-22T04:07:15.262Z,11.87
2018-07-22T04:09:44.606Z,7.97
2018-07-22T04:12:13.948Z,10.50
2018-07-22T04:14:43.281Z,9.57
2018-07-22T04:17:12.944Z,9.40
2018-07-22T04:19:42.286Z,7.40
2018-07-22T04:22:11.813Z,7.53
2018-07-22T04:24:41.194Z,7.63
2018-07-22T04:27:10.557Z,8.17
2018-07-22T04:29:40.004Z,7.40
2018-07-22T04:32:09.338Z,7.50
2018-07-22T04:34:38.661Z,7.23
2018-07-22T04:37:08.025Z,7.00
2018-07-22T04:39:37.349Z,7.93
2018-07-22T04:42:06.749Z,8.13
2018-07-22T04:44:36.128Z,7.00
2018-07-22T04:47:05.480Z,7.83
2018-07-22T04:49:34.795Z,7.57
2018-07-22T04:52:04.176Z,6.83
2018-07-22T04:54:33.510Z,7.80
2018-07-22T04:57:02.879Z,8.20
2018-07-22T04:59:32.311Z,9.60
2018-07-22T05:02:01.653Z,7.30
2018-07-22T05:04:31.034Z,8.73
2018-07-22T05:07:00.377Z,7.03
2018-07-22T05:09:29.705Z,7.70
2018-07-22T05:11:59.077Z,9.23
2018-07-22T05:14:28.388Z,8.60
2018-07-22T05:16:57.702Z,7.40
2018-07-22T05:19:27.044Z,11.50
2018-07-22T05:21:56.407Z,7.60
2018-07-22T05:24:25.801Z,7.30
2018-07-22T05:26:55.144Z,8.20
2018-07-22T05:29:24.550Z,8.67
2018-07-22T05:31:54.006Z,7.97
2018-07-22T05:34:23.349Z,8.00
2018-07-22T05:36:52.746Z,9.17
2018-07-22T05:39:22.082Z,8.37
2018-07-22T05:41:51.393Z,11.03
2018-07-22T05:44:20.779Z,11.17
2018-07-22T05:46:50.142Z,8.70
2018-07-22T05:49:19.472Z,9.13
2018-07-22T05:51:48.819Z,8.23
2018-07-22T05:54:18.219Z,8.90
2018-07-22T05:56:47.575Z,9.73
2018-07-22T05:59:16.919Z,8.77
2018-07-22T06:01:46.285Z,8.50
2018-07-22T06:04:15.633Z,9.23
2018-07-22T06:06:44.929Z,8.50
2018-07-22T06:09:14.318Z,11.47
2018-07-22T06:11:43.667Z,9.20
2018-07-22T06:14:12.976Z,8.83
2018-07-22T06:16:42.287Z,8.90
2018-07-22T06:19:11.679Z,10.37
2018-07-22T06:21:41.114Z,8.97
2018-07-22T06:24:10.531Z,9.53
2018-07-22T06:26:40.034Z,8.60
2018-07-22T06:29:09.514Z,8.47
2018-07-22T06:31:38.943Z,9.10
2018-07-22T06:34:08.374Z,9.37
2018-07-22T06:36:37.754Z,9.30
2018-07-22T06:39:09.605Z,9.17
2018-07-22T06:41:39.039Z,10.33
2018-07-22T06:44:08.429Z,8.60
2018-07-22T06:46:37.786Z,9.50
2018-07-22T06:49:07.550Z,9.37
2018-07-22T06:51:36.925Z,11.37
2018-07-22T06:54:07.469Z,9.57
2018-07-22T06:56:36.867Z,11.00
2018-07-22T06:59:06.292Z,9.70
2018-07-22T07:01:35.632Z,10.37
2018-07-22T07:04:05.048Z,10.57
2018-07-22T07:06:34.373Z,10.27
2018-07-22T07:09:04.514Z,11.70
2018-07-22T07:11:33.872Z,9.30
2018-07-22T07:14:03.221Z,13.13
2018-07-22T07:16:32.539Z,9.20
2018-07-22T07:19:02.888Z,10.13
2018-07-22T07:21:32.354Z,10.87
2018-07-22T07:24:01.775Z,9.93
2018-07-22T07:26:31.121Z,11.17
2018-07-22T07:29:00.531Z,10.00
2018-07-22T07:31:29.934Z,10.53
2018-07-22T07:33:59.281Z,10.27
2018-07-22T07:36:28.588Z,12.50
2018-07-22T07:38:57.937Z,13.10
2018-07-22T07:41:27.290Z,11.03
2018-07-22T07:43:56.665Z,10.33
2018-07-22T07:46:26.025Z,13.63
2018-07-22T07:48:55.353Z,12.87
2018-07-22T07:51:24.754Z,12.20
2018-07-22T07:53:54.165Z,11.37
2018-07-22T07:56:23.560Z,10.73
2018-07-22T07:58:52.867Z,12.30
2018-07-22T08:01:22.246Z,14.70
2018-07-22T08:03:51.656Z,10.07
2018-07-22T08:06:21.134Z,11.03
2018-07-22T08:08:50.531Z,17.53
2018-07-22T08:11:19.919Z,9.90
2018-07-22T08:13:49.229Z,12.43
2018-07-22T08:16:18.636Z,9.97
2018-07-22T08:18:48.029Z,10.23
2018-07-22T08:21:17.370Z,10.17
2018-07-22T08:23:46.759Z,9.13
2018-07-22T08:26:16.067Z,8.73
2018-07-22T08:29:06.630Z,13.10
2018-07-22T08:31:35.941Z,10.57
2018-07-22T08:34:05.348Z,8.23
2018-07-22T08:36:34.662Z,8.20
2018-07-22T08:39:05.510Z,8.57
2018-07-22T08:41:35.005Z,10.33
2018-07-22T08:44:03.979Z,9.83
2018-07-22T08:46:33.180Z,8.77
2018-07-22T08:49:03.542Z,8.60
2018-07-22T08:51:33.366Z,9.43
2018-07-22T08:54:03.913Z,8.90
2018-07-22T08:56:33.713Z,10.43
2018-07-22T08:59:03.279Z,10.63
2018-07-22T09:01:32.541Z,10.63
2018-07-22T09:04:01.881Z,9.50
2018-07-22T09:06:32.013Z,10.83
2018-07-22T09:09:01.375Z,8.93
2018-07-22T09:11:30.685Z,12.20
2018-07-22T09:13:59.969Z,10.03
2018-07-22T09:16:29.272Z,8.20
2018-07-22T09:18:58.580Z,8.37
2018-07-22T09:21:27.578Z,8.50
2018-07-22T09:23:56.917Z,9.70
2018-07-22T09:26:26.244Z,8.17
2018-07-22T09:28:55.615Z,8.33
2018-07-22T09:31:24.922Z,9.10
2018-07-22T09:33:54.242Z,8.60
2018-07-22T09:36:23.625Z,9.20
2018-07-22T09:38:52.917Z,9.50
2018-07-22T09:41:22.202Z,8.80
2018-07-22T09:43:51.511Z,7.87
2018-07-22T09:46:20.798Z,8.50
2018-07-22T09:48:50.118Z,14.80
2018-07-22T09:51:19.386Z,10.00
2018-07-22T09:53:48.741Z,8.00
2018-07-22T09:56:18.069Z,9.80
2018-07-22T09:58:47.424Z,7.70
2018-07-22T10:01:16.976Z,8.90
2018-07-22T10:03:46.325Z,8.70
2018-07-22T10:06:15.670Z,7.00
2018-07-22T10:08:44.966Z,7.53
2018-07-22T10:11:14.359Z,8.30
2018-07-22T10:13:43.713Z,7.90
2018-07-22T10:16:13.068Z,9.27
2018-07-22T10:18:42.454Z,9.07
2018-07-22T10:21:11.810Z,10.43
2018-07-22T10:23:41.169Z,12.40
2018-07-22T10:26:10.618Z,13.00
2018-07-22T10:28:40.048Z,11.50
2018-07-22T10:31:09.382Z,12.73
2018-07-22T10:33:38.789Z,10.37
2018-07-22T10:36:08.166Z,9.97
2018-07-22T10:38:37.574Z,11.03
2018-07-22T10:41:06.935Z,23.43
2018-07-22T10:43:36.254Z,9.90
2018-07-22T10:46:05.657Z,10.20
2018-07-22T10:48:34.961Z,10.23
2018-07-22T10:51:04.368Z,10.77
2018-07-22T10:53:33.624Z,13.70
2018-07-22T10:56:02.938Z,10.57
2018-07-22T10:58:31.891Z,13.37
2018-07-22T11:01:01.153Z,35.23
2018-07-22T11:03:30.465Z,27.17
2018-07-22T11:05:59.859Z,26.10
2018-07-22T11:08:29.268Z,24.03
2018-07-22T11:11:05.033Z,36.30
2018-07-22T11:13:34.689Z,19.70
2018-07-22T11:16:04.034Z,16.00
2018-07-22T11:18:33.374Z,20.40
2018-07-22T11:21:02.767Z,19.73
2018-07-22T11:23:32.414Z,14.37
2018-07-22T11:26:02.781Z,14.70
2018-07-22T11:28:32.170Z,16.50
2018-07-22T11:31:01.464Z,15.77
2018-07-22T11:33:30.786Z,13.43
2018-07-22T11:36:00.199Z,16.13
2018-07-22T11:38:29.538Z,12.30
2018-07-22T11:40:58.849Z,16.57
2018-07-22T11:43:27.824Z,13.70
2018-07-22T11:45:56.991Z,14.23
2018-07-22T11:48:26.280Z,12.80
2018-07-22T11:50:55.641Z,13.17
2018-07-22T11:53:24.933Z,12.63
2018-07-22T11:55:54.281Z,15.60
2018-07-22T11:58:23.593Z,13.47
2018-07-22T12:00:52.907Z,9.93
2018-07-22T12:03:22.220Z,11.67
2018-07-22T12:05:51.504Z,10.83
2018-07-22T12:08:20.840Z,10.27
2018-07-22T12:10:50.153Z,13.30
2018-07-22T12:13:19.425Z,12.77
2018-07-22T12:15:48.724Z,11.47
2018-07-22T12:18:18.070Z,13.97
2018-07-22T12:20:47.502Z,10.93
2018-07-22T12:23:16.861Z,14.50
2018-07-22T12:25:45.829Z,10.50
2018-07-22T12:28:15.159Z,12.83
2018-07-22T12:30:44.419Z,11.20
2018-07-22T12:33:13.763Z,13.97
2018-07-22T12:35:43.059Z,12.60
2018-07-22T12:38:12.379Z,11.93
2018-07-22T12:40:41.673Z,12.50
2018-07-22T12:43:11.137Z,11.57
2018-07-22T12:45:40.495Z,12.03
2018-07-22T12:48:09.888Z,10.50
2018-07-22T12:50:39.533Z,11.73
2018-07-22T12:53:09.341Z,10.73
2018-07-22T12:55:38.976Z,11.00
2018-07-22T12:58:08.608Z,11.47
2018-07-22T13:00:38.001Z,13.03
2018-07-22T13:03:07.303Z,9.50
2018-07-22T13:05:37.196Z,12.30
2018-07-22T13:08:07.143Z,10.90
2018-07-22T13:10:36.441Z,12.43
2018-07-22T13:13:05.874Z,8.50
2018-07-22T13:15:35.365Z,9.47
2018-07-22T13:18:04.718Z,9.07
2018-07-22T13:20:34.107Z,8.90
2018-07-22T13:23:03.484Z,9.43
2018-07-22T13:25:32.944Z,10.23
2018-07-22T13:28:02.263Z,8.57
2018-07-22T13:30:31.605Z,10.47
2018-07-22T13:33:00.926Z,9.50
2018-07-22T13:35:30.292Z,8.10
2018-07-22T13:37:59.701Z,8.53
2018-07-22T13:40:28.996Z,8.03
2018-07-22T13:42:58.327Z,8.07
2018-07-22T13:45:27.751Z,11.03
2018-07-22T13:47:57.011Z,11.00
2018-07-22T13:50:26.381Z,9.10
2018-07-22T13:52:55.789Z,11.33
2018-07-22T13:55:25.102Z,6.70
2018-07-22T13:57:54.653Z,7.10
2018-07-22T14:00:24.154Z,9.63
2018-07-22T14:02:53.449Z,8.97
2018-07-22T14:05:22.847Z,7.40
2018-07-22T14:07:52.141Z,8.90
2018-07-22T14:10:21.533Z,9.23
2018-07-22T14:12:50.935Z,6.90
2018-07-22T14:15:20.352Z,8.97
2018-07-22T14:17:49.734Z,9.07
2018-07-22T14:20:19.149Z,8.37
2018-07-22T14:22:48.452Z,8.77
2018-07-22T14:25:17.757Z,7.57
2018-07-22T14:27:47.082Z,10.47
2018-07-22T14:30:16.398Z,9.03
2018-07-22T14:32:45.748Z,8.30
2018-07-22T14:35:15.062Z,10.83
2018-07-22T14:37:44.444Z,9.90
2018-07-22T14:40:13.779Z,8.77
2018-07-22T14:42:43.130Z,7.10
2018-07-22T14:45:12.482Z,7.87
2018-07-22T14:47:41.881Z,7.47
2018-07-22T14:50:11.306Z,10.43
2018-07-22T14:52:40.787Z,11.00
2018-07-22T14:55:10.197Z,10.07
2018-07-22T14:57:39.559Z,8.63
2018-07-22T15:00:09.193Z,9.43
2018-07-22T15:02:38.593Z,11.87
2018-07-22T15:05:07.957Z,9.33
2018-07-22T15:07:37.633Z,10.00
2018-07-22T15:10:06.970Z,10.10
2018-07-22T15:12:36.242Z,9.53
2018-07-22T15:15:05.690Z,6.97
2018-07-22T15:17:35.020Z,11.00
2018-07-22T15:20:04.778Z,7.90
2018-07-22T15:22:34.116Z,8.67
2018-07-22T15:25:03.472Z,8.93
2018-07-22T15:27:32.789Z,8.47
2018-07-22T15:30:02.126Z,8.30
2018-07-22T15:32:31.504Z,8.90
2018-07-22T15:35:00.889Z,9.53
2018-07-22T15:37:30.211Z,9.07
2018-07-22T15:39:59.597Z,9.83
2018-07-22T15:42:28.912Z,8.90
2018-07-22T15:44:58.217Z,9.80
2018-07-22T15:47:27.544Z,13.60
2018-07-22T15:49:56.820Z,11.07
2018-07-22T15:52:26.205Z,11.03
2018-07-22T15:54:55.601Z,11.70
2018-07-22T15:57:24.901Z,9.77
2018-07-22T15:59:53.910Z,11.00
2018-07-22T16:02:23.114Z,17.90
2018-07-22T16:04:52.379Z,10.30
2018-07-22T16:07:21.765Z,14.63
2018-07-22T16:09:51.157Z,9.77
2018-07-22T16:12:20.517Z,9.67
2018-07-22T16:14:49.809Z,10.10
2018-07-22T16:17:19.182Z,13.60
2018-07-22T16:19:48.511Z,12.40
2018-07-22T16:22:17.831Z,11.87
2018-07-22T16:24:47.329Z,9.57
2018-07-22T16:27:16.608Z,12.20
2018-07-22T16:29:45.953Z,18.90
2018-07-22T16:32:15.240Z,18.13
2018-07-22T16:34:44.568Z,10.93
2018-07-22T16:37:13.881Z,10.40
2018-07-22T16:39:43.217Z,10.83
2018-07-22T16:42:12.574Z,13.80
2018-07-22T16:44:41.949Z,14.80
2018-07-22T16:47:11.265Z,13.37
2018-07-22T16:49:40.726Z,14.47
2018-07-22T16:52:10.149Z,11.67
2018-07-22T16:54:39.555Z,9.53
2018-07-22T16:57:09.019Z,9.53
2018-07-22T16:59:38.360Z,9.40
2018-07-22T17:02:07.714Z,9.63
2018-07-22T17:04:37.038Z,8.20
2018-07-22T17:07:06.363Z,12.93
2018-07-22T17:09:35.734Z,10.83
2018-07-22T17:12:05.119Z,12.07
2018-07-22T17:14:34.486Z,8.60
2018-07-22T17:17:03.815Z,9.77
2018-07-22T17:19:33.163Z,9.07
2018-07-22T17:22:02.508Z,12.17
2018-07-22T17:24:31.841Z,9.47
2018-07-22T17:27:01.184Z,8.50
2018-07-22T17:29:30.523Z,9.53
2018-07-22T17:31:59.949Z,9.20
2018-07-22T17:34:29.292Z,8.97
2018-07-22T17:36:58.896Z,12.90
2018-07-22T17:39:28.316Z,8.40
2018-07-22T17:41:57.762Z,12.50
2018-07-22T17:44:27.120Z,9.17
2018-07-22T17:46:56.525Z,11.27
2018-07-22T17:49:25.836Z,9.10
2018-07-22T17:51:55.276Z,8.83
2018-07-22T17:54:24.648Z,11.23
2018-07-22T17:56:53.954Z,11.03
2018-07-22T17:59:23.355Z,11.17
2018-07-22T18:01:52.774Z,9.70
2018-07-22T18:04:22.135Z,10.37
2018-07-22T18:06:51.567Z,11.00
2018-07-22T18:09:20.877Z,10.37
2018-07-22T18:11:50.196Z,10.93
2018-07-22T18:14:19.820Z,10.70
2018-07-22T18:16:49.170Z,12.00
2018-07-22T18:19:18.468Z,13.63
2018-07-22T18:21:47.800Z,15.30
2018-07-22T18:24:17.145Z,12.50
2018-07-22T18:26:46.419Z,11.97
2018-07-22T18:29:16.809Z,10.40
2018-07-22T18:31:46.167Z,10.30
2018-07-22T18:34:15.433Z,10.57
2018-07-22T18:36:44.755Z,10.03
2018-07-22T18:39:14.094Z,11.40
2018-07-22T18:41:43.428Z,11.00
2018-07-22T18:44:12.768Z,10.40
2018-07-22T18:46:43.097Z,12.23
2018-07-22T18:49:12.518Z,10.83
2018-07-22T18:51:41.801Z,9.27
2018-07-22T18:54:11.169Z,11.90
2018-07-22T18:56:40.554Z,10.73
2018-07-22T18:59:09.868Z,11.43
2018-07-22T19:01:39.304Z,18.87
2018-07-22T19:04:08.604Z,11.50
2018-07-22T19:06:37.905Z,12.33
2018-07-22T19:09:09.631Z,11.23
2018-07-22T19:11:38.926Z,9.60
2018-07-22T19:14:08.424Z,9.40
2018-07-22T19:16:37.809Z,12.13
2018-07-22T19:19:07.188Z,10.03
2018-07-22T19:21:36.510Z,10.60
2018-07-22T19:24:05.838Z,10.10
2018-07-22T19:26:35.157Z,13.40
2018-07-22T19:29:04.495Z,10.17
2018-07-22T19:31:33.913Z,11.50
2018-07-22T19:34:03.307Z,11.30
2018-07-22T19:36:32.624Z,10.67
2018-07-22T19:39:02.033Z,9.77
2018-07-22T19:41:31.409Z,11.23
2018-07-22T19:44:00.717Z,11.47
2018-07-22T19:46:30.035Z,10.27
2018-07-22T19:48:59.340Z,18.13
2018-07-22T19:51:28.681Z,12.90
2018-07-22T19:53:57.983Z,11.07
2018-07-22T19:56:27.310Z,13.80
2018-07-22T19:58:56.638Z,11.50
2018-07-22T20:01:26.058Z,11.23
2018-07-22T20:03:55.409Z,12.53
2018-07-22T20:06:24.800Z,12.33
2018-07-22T20:08:54.113Z,11.97
2018-07-22T20:11:23.542Z,12.40
2018-07-22T20:13:52.848Z,11.80
2018-07-22T20:16:22.153Z,12.47
2018-07-22T20:18:51.424Z,11.07
2018-07-22T20:21:20.825Z,12.73
2018-07-22T20:23:50.158Z,13.30
2018-07-22T20:26:19.478Z,12.13
2018-07-22T20:28:48.777Z,14.97
2018-07-22T20:31:18.230Z,12.43
2018-07-22T20:33:47.533Z,12.80
2018-07-22T20:36:16.877Z,13.23
2018-07-22T20:38:46.509Z,21.37
2018-07-22T20:41:15.903Z,12.33
2018-07-22T20:43:45.274Z,12.47
2018-07-22T20:46:14.652Z,12.77
2018-07-22T20:48:43.958Z,13.23
2018-07-22T20:51:13.285Z,13.07
2018-07-22T20:53:42.596Z,13.30
2018-07-22T20:56:11.956Z,14.07
2018-07-22T20:58:41.420Z,14.10
2018-07-22T21:01:10.806Z,13.00
2018-07-22T21:03:40.208Z,12.47
2018-07-22T21:06:09.540Z,13.03
2018-07-22T21:08:38.893Z,16.67
2018-07-22T21:11:08.200Z,12.47
2018-07-22T21:13:37.582Z,14.20
2018-07-22T21:16:06.982Z,12.33
2018-07-22T21:21:05.737Z,13.33
2018-07-22T21:23:35.026Z,13.53
2018-07-22T21:26:04.394Z,15.10
2018-07-22T21:28:33.821Z,16.00
2018-07-22T21:31:03.132Z,14.10
2018-07-22T21:33:32.521Z,13.73
2018-07-22T21:36:01.843Z,14.80
2018-07-22T21:38:31.255Z,14.13
2018-07-22T21:41:00.556Z,13.63
2018-07-22T21:43:29.884Z,15.13
2018-07-22T21:45:59.192Z,14.03
2018-07-22T21:48:28.654Z,15.13
2018-07-22T21:50:57.984Z,14.60
2018-07-22T21:53:27.311Z,15.10
2018-07-22T21:55:56.625Z,14.40
2018-07-22T21:58:25.981Z,16.23
2018-07-22T22:00:55.425Z,14.67
2018-07-22T22:03:24.763Z,15.00
2018-07-22T22:05:53.836Z,14.40
2018-07-22T22:08:23.037Z,16.10
2018-07-22T22:10:52.405Z,23.43
2018-07-22T22:13:21.713Z,15.17
2018-07-22T22:15:51.081Z,15.60
2018-07-22T22:18:20.419Z,16.10
2018-07-22T22:20:49.750Z,17.17
2018-07-22T22:23:19.067Z,18.37
2018-07-22T22:25:48.412Z,14.70
2018-07-22T22:28:17.775Z,19.10
2018-07-22T22:30:47.165Z,15.50
2018-07-22T22:33:16.499Z,17.33
2018-07-22T22:35:45.856Z,15.77
2018-07-22T22:38:15.202Z,17.40
2018-07-22T22:40:44.566Z,15.53
2018-07-22T22:43:13.925Z,15.77
2018-07-22T22:45:43.249Z,16.10
2018-07-22T22:48:12.659Z,15.27
2018-07-22T22:50:41.957Z,16.33
2018-07-22T22:53:11.350Z,19.10
2018-07-22T22:55:40.743Z,18.70
2018-07-22T22:58:21.357Z,16.83
2018-07-22T23:00:50.709Z,15.73
2018-07-22T23:03:20.047Z,15.27
2018-07-22T23:05:49.364Z,16.60
2018-07-22T23:08:18.693Z,15.80
2018-07-22T23:10:47.997Z,16.83
2018-07-22T23:13:17.322Z,16.97
2018-07-22T23:15:46.778Z,16.80
2018-07-22T23:18:16.105Z,17.50
2018-07-22T23:20:45.405Z,22.47
2018-07-22T23:23:14.697Z,19.03
2018-07-22T23:25:43.643Z,16.93
2018-07-22T23:28:12.920Z,16.53
2018-07-22T23:30:42.222Z,16.13
2018-07-22T23:33:11.532Z,17.70
2018-07-22T23:35:40.835Z,17.63
2018-07-22T23:38:10.152Z,18.03
2018-07-22T23:40:39.612Z,17.17
2018-07-22T23:43:08.933Z,18.17
2018-07-22T23:45:38.277Z,17.70
2018-07-22T23:48:07.616Z,16.33
2018-07-22T23:50:36.912Z,17.10
2018-07-22T23:53:06.561Z,22.03
2018-07-22T23:55:35.907Z,17.07
2018-07-22T23:58:05.232Z,16.97
